Flight Track Log - Related Links

Times and Time Zones

All times are in EDT time to prevent confusion due to time zone crossing. See the FLG4208 flight status page for this flight to view local times or setup timezone preferences in your user account.

Time Position Orientation Groundspeed Altitude Reporting Facility
EDT Latitude Longitude Course Direction KTS MPH feet Rate Location/Type
Thu 12:06:13 PM 42.1789 -85.4647 114° Southeast 252 290 4,200  Level Chicago Center
Thu 12:07:15 PM 42.1631 -85.3581 101° East 278 320 7,400 3,209 Climbing Chicago Center
Thu 12:07:39 PM 42.1567 -85.3092 100° East 285 328 8,800 2,602 Climbing Cleveland Center
Thu 12:08:00 PM 42.1556 -85.1982 106° East  Level FlightAware Approximate
Thu 12:08:38 PM 42.1364 -85.1928 103° East 292 336 11,000  Level Cleveland Center
Thu 12:09:00 PM 42.1366 -85.1092 106° East  Level FlightAware Approximate
Thu 12:09:38 PM 42.1144 -85.0594 102° East 327 376 11,000  Level Cleveland Center
Thu 12:10:00 PM 42.1175 -85.0203 106° East  Level FlightAware Approximate
Thu 12:10:38 PM 42.0925 -84.9292 103° East 346 398 11,000  Level Cleveland Center
Thu 12:11:39 PM 42.0700 -84.8017 103° East 351 404 11,900 500 Climbing Cleveland Center
Thu 12:12:38 PM 42.0239 -84.6897 119° Southeast 345 397 12,000 50 Climbing Cleveland Center
Thu 12:13:39 PM 41.9653 -84.5797 126° Southeast 351 404 12,000  Level Cleveland Center
Thu 12:14:38 PM 41.9042 -84.4811 130° Southeast 351 404 12,000  Level Cleveland Center
Thu 12:15:39 PM 41.8317 -84.4042 142° Southeast 344 396 12,000  Level Cleveland Center
Thu 12:16:35 PM 41.7578 -84.3078 136° Southeast 373 429 12,000  Level Cleveland Center
Thu 12:17:39 PM 41.7808 -84.1672 78° East 304 350 12,000  Level Cleveland Center
Thu 12:18:13 PM 41.8083 -84.0933 63° Northeast 383 441 12,000  Level Cleveland Center
Thu 12:18:38 PM 41.8244 -84.0386 68° East 327 376 12,000  Level Cleveland Center
Thu 12:19:21 PM 41.8706 -83.9631 51° Northeast 374 430 12,000  Level Cleveland Center
Thu 12:19:38 PM 41.8903 -83.9306 51° Northeast 347 399 12,000  Level Cleveland Center
Thu 12:20:09 PM 41.9311 -83.8853 40° Northeast 371 427 12,000  Level Cleveland Center
Thu 12:20:39 PM 41.9658 -83.8367 46° Northeast 352 405 12,000  Level Cleveland Center
Thu 12:21:16 PM 42.0156 -83.7806 40° Northeast 370 426 12,000  Level Cleveland Center
Thu 12:21:38 PM 42.0436 -83.7428 45° Northeast 358 412 12,000  Level Cleveland Center
Thu 12:22:17 PM 42.0808 -83.6719 55° Northeast 366 421 12,000  Level Cleveland Center
Thu 12:22:39 PM 42.0883 -83.6303 76° East 348 400 12,000 -492 Level Cleveland Center
Thu 12:23:18 PM 42.1011 -83.5386 79° East 364 419 11,500 -800 Descending Cleveland Center
Thu 12:23:39 PM 42.1106 -83.4969 73° East 348 400 11,200 -492 Descending Cleveland Center
Thu 12:24:19 PM 42.1253 -83.4136 77° East 322 371 11,000 -200 Descending Cleveland Center
Thu 12:24:39 PM 42.1303 -83.3775 79° East 335 386 11,000  Level Cleveland Center
Thu 12:25:20 PM 42.1611 -83.3058 60° Northeast 322 371 11,000  Level Cleveland Center
Thu 12:25:39 PM 42.1764 -83.2786 53° Northeast 307 353 11,000 -806 Level Cleveland Center
Thu 12:26:27 PM 42.2361 -83.2139 39° Northeast 320 368 10,100 -1,165 Descending Cleveland Center
Thu 12:27:22 PM 42.2922 -83.1375 45° Northeast 311 358 9,000 -1,345 Descending Cleveland Center
Thu 12:28:23 PM 42.3661 -83.0872 27° Northeast 294 338 7,500 -1,345 Descending Cleveland Center
Thu 12:29:18 PM 42.4339 -83.0447 25° Northeast 282 325 6,400 -732 Descending Cleveland Center
Thu 12:30:26 PM 42.4944 -83.0331 North 212 244 6,000 -195 Descending Cleveland Center
Thu 12:31:21 PM 42.4931 -83.1033 268° West 194 223 6,000  Level Cleveland Center

Login

Don't have an account? Register now (free) for customized features, flight alerts, and more!